Time;durP1;ratioP1;P1;durP2;ratioP2;P2;SDS_P1;SDS_P2;PMS_P1;PMS_P2;Temp;Humidity;BMP_temperature;BMP_pressure;BME280_temperature;BME280_humidity;BME280_pressure;Samples;Min_cycle;Max_cycle;Signal;HPM_P1;HPM_P2
2023/09/24 00:03:15;;;;;;;1.57;0.80;;;;;;;17.77;51.95;97365.38;10283950;28;20030;-26
2023/09/24 00:08:17;;;;;;;1.53;0.90;;;;;;;17.81;51.75;97373.03;10286310;28;20045;-27
2023/09/24 00:13:21;;;;;;;1.33;0.70;;;;;;;17.88;51.96;97371.41;10286307;28;20039;-27
2023/09/24 00:18:22;;;;;;;2.95;0.80;;;;;;;17.99;51.10;97385.06;10281846;28;20037;-27
2023/09/24 00:23:22;;;;;;;4.67;0.90;;;;;;;17.98;50.91;97371.53;10277287;28;20027;-27
2023/09/24 00:28:26;;;;;;;1.50;0.70;;;;;;;17.87;51.34;97378.16;10285765;28;20282;-27
2023/09/24 00:33:26;;;;;;;1.25;0.90;;;;;;;17.82;51.32;97384.00;10280938;28;20409;-25
2023/09/24 00:38:26;;;;;;;1.10;0.70;;;;;;;17.88;51.10;97374.81;10277697;28;20031;-27
2023/09/24 00:43:32;;;;;;;1.43;0.70;;;;;;;17.87;51.17;97382.38;10283419;28;20274;-26
2023/09/24 00:48:33;;;;;;;0.73;0.60;;;;;;;17.75;51.16;97378.00;10283224;28;20050;-27
2023/09/24 00:53:34;;;;;;;4.32;1.02;;;;;;;17.77;50.92;97395.75;10282739;28;20325;-26
2023/09/24 00:58:35;;;;;;;1.27;0.63;;;;;;;17.77;50.92;97393.22;10283991;28;20030;-26
2023/09/24 01:03:40;;;;;;;2.40;0.88;;;;;;;17.77;50.63;97380.56;10279648;28;20034;-26
2023/09/24 01:08:42;;;;;;;0.95;0.80;;;;;;;17.67;51.03;97383.81;10285084;28;20086;-27
2023/09/24 01:13:46;;;;;;;1.70;0.73;;;;;;;17.68;50.73;97380.44;10291432;28;20038;-27
2023/09/24 01:18:46;;;;;;;1.17;0.70;;;;;;;17.62;51.07;97380.34;10289741;28;20042;-26
2023/09/24 01:23:48;;;;;;;1.87;0.80;;;;;;;17.60;51.04;97382.88;10289631;28;20034;-26
2023/09/24 01:28:49;;;;;;;1.33;0.75;;;;;;;17.51;51.11;97386.94;10288729;28;20507;-26
2023/09/24 01:33:49;;;;;;;1.80;0.88;;;;;;;17.49;51.34;97391.16;10288412;28;20035;-27
2023/09/24 01:38:50;;;;;;;0.97;0.50;;;;;;;17.50;51.34;97375.13;10279292;28;20030;-26
2023/09/24 01:43:50;;;;;;;1.00;0.55;;;;;;;17.48;50.81;97386.91;10304436;28;20282;-27
2023/09/24 01:48:53;;;;;;;1.30;0.70;;;;;;;17.52;50.74;97383.59;10288753;28;20465;-26
2023/09/24 01:53:54;;;;;;;1.90;0.65;;;;;;;17.46;50.72;97374.22;10288502;28;20329;-26
2023/09/24 01:58:54;;;;;;;1.17;0.70;;;;;;;17.44;50.72;97382.63;10289379;28;20456;-26
2023/09/24 02:03:59;;;;;;;1.23;0.70;;;;;;;17.43;51.18;97380.94;10288099;28;20344;-26
2023/09/24 02:09:01;;;;;;;1.33;0.70;;;;;;;17.34;50.71;97373.16;10286573;28;20034;-27
2023/09/24 02:14:02;;;;;;;1.00;0.73;;;;;;;17.33;50.59;97386.66;10284618;28;20038;-27
2023/09/24 02:19:02;;;;;;;0.98;0.60;;;;;;;17.35;51.22;97395.13;10293723;28;20074;-26
2023/09/24 02:24:06;;;;;;;2.05;0.82;;;;;;;17.37;50.36;97396.00;10286496;28;20031;-26
2023/09/24 02:29:07;;;;;;;1.90;0.95;;;;;;;17.33;50.81;97402.66;10285256;28;20039;-26
2023/09/24 02:34:08;;;;;;;1.25;0.50;;;;;;;17.36;50.54;97412.03;10288499;28;20548;-25
2023/09/24 02:39:08;;;;;;;1.98;0.52;;;;;;;17.31;50.61;97403.50;10285567;28;20049;-26
2023/09/24 02:44:11;;;;;;;1.00;0.50;;;;;;;17.34;50.11;97403.53;10287556;28;20035;-26
2023/09/24 02:49:11;;;;;;;1.10;0.50;;;;;;;17.29;50.62;97410.19;10282531;28;20089;-28
2023/09/24 02:54:12;;;;;;;5.37;0.87;;;;;;;17.34;50.21;97413.66;10285678;28;20039;-27
2023/09/24 02:59:12;;;;;;;1.63;0.60;;;;;;;17.28;50.01;97405.97;10287252;28;20033;-27
2023/09/24 03:04:15;;;;;;;0.50;0.40;;;;;;;17.28;50.50;97413.56;10286283;28;20031;-26
2023/09/24 03:09:15;;;;;;;1.65;0.68;;;;;;;17.17;50.62;97410.00;10285077;28;20125;-26
2023/09/24 03:14:16;;;;;;;1.08;0.60;;;;;;;17.18;50.62;97416.78;10285219;28;20085;-26
2023/09/24 03:19:16;;;;;;;1.27;0.93;;;;;;;17.16;50.81;97423.50;10287950;28;20420;-27
2023/09/24 03:24:17;;;;;;;0.70;0.40;;;;;;;17.10;50.67;97419.19;10278160;28;20408;-26
2023/09/24 03:29:19;;;;;;;1.08;0.65;;;;;;;17.18;50.24;97424.38;10286171;28;20336;-26
2023/09/24 03:34:19;;;;;;;1.50;0.60;;;;;;;17.09;50.39;97431.81;10284960;28;20401;-26
2023/09/24 03:39:20;;;;;;;2.08;0.50;;;;;;;17.20;50.11;97425.22;10282404;28;20042;-27
2023/09/24 03:44:21;;;;;;;0.90;0.65;;;;;;;17.09;50.12;97434.34;10281770;28;20038;-26
2023/09/24 03:49:21;;;;;;;2.22;0.40;;;;;;;17.21;50.67;97432.88;10284254;28;20039;-26
2023/09/24 03:54:22;;;;;;;1.13;0.70;;;;;;;17.19;50.10;97431.13;10283960;28;20075;-26
2023/09/24 03:59:24;;;;;;;0.67;0.50;;;;;;;17.12;49.86;97439.44;10283274;28;20031;-27
2023/09/24 04:04:26;;;;;;;1.73;0.70;;;;;;;17.12;49.49;97431.84;10284960;28;20070;-26
2023/09/24 04:09:26;;;;;;;1.85;0.57;;;;;;;17.12;50.04;97437.78;10283249;28;20065;-26
2023/09/24 04:14:27;;;;;;;1.67;0.50;;;;;;;17.11;49.85;97445.31;10284141;28;20138;-26
2023/09/24 04:19:29;;;;;;;0.90;0.40;;;;;;;17.22;49.81;97452.28;10286169;28;20061;-27
2023/09/24 04:24:29;;;;;;;1.33;0.50;;;;;;;17.11;49.73;97447.84;10282603;28;20030;-26
2023/09/24 04:29:30;;;;;;;1.20;0.60;;;;;;;17.06;49.76;97446.94;10286345;28;20038;-27
2023/09/24 04:34:30;;;;;;;1.47;0.57;;;;;;;17.01;49.70;97453.59;10281600;28;20313;-27
2023/09/24 04:39:30;;;;;;;0.90;0.53;;;;;;;16.99;49.74;97462.84;10282061;28;20406;-26
2023/09/24 04:44:31;;;;;;;2.17;0.57;;;;;;;17.01;49.87;97458.66;10287967;28;20118;-27
2023/09/24 04:49:31;;;;;;;0.85;0.50;;;;;;;16.99;49.88;97461.16;10293399;28;20039;-27
2023/09/24 04:54:31;;;;;;;1.40;0.40;;;;;;;16.97;49.83;97467.00;10289398;28;20046;-26
2023/09/24 04:59:32;;;;;;;0.80;0.60;;;;;;;16.90;49.82;97465.22;10293243;28;20126;-26
2023/09/24 05:04:32;;;;;;;1.07;0.50;;;;;;;16.94;49.64;97474.53;10290559;28;20049;-26
2023/09/24 05:09:32;;;;;;;1.50;0.83;;;;;;;16.82;49.88;97486.97;10289451;28;20034;-26
2023/09/24 05:14:33;;;;;;;2.03;0.70;;;;;;;16.91;49.80;97493.03;10292501;28;20070;-27
2023/09/24 05:19:33;;;;;;;1.17;0.73;;;;;;;16.86;49.91;97494.66;10291790;28;20044;-26
2023/09/24 05:24:34;;;;;;;0.80;0.60;;;;;;;16.91;49.47;97504.84;10288300;28;20034;-26
2023/09/24 05:29:35;;;;;;;0.95;0.63;;;;;;;16.86;49.96;97508.94;10289167;28;20390;-27
2023/09/24 05:34:36;;;;;;;1.13;0.70;;;;;;;16.93;49.60;97514.19;10286829;28;20023;-26
2023/09/24 05:39:36;;;;;;;3.40;0.75;;;;;;;16.99;49.10;97516.78;10284637;28;20039;-25
2023/09/24 05:44:37;;;;;;;2.83;0.60;;;;;;;16.91;49.37;97514.97;10290134;28;20053;-27
2023/09/24 05:49:37;;;;;;;2.73;0.50;;;;;;;17.03;50.74;97520.25;10288928;28;20042;-26
2023/09/24 05:54:37;;;;;;;0.83;0.60;;;;;;;17.12;51.65;97512.81;10285915;28;20038;-25
2023/09/24 05:59:38;;;;;;;0.93;0.57;;;;;;;17.12;51.59;97502.69;10292214;28;20034;-28
2023/09/24 06:04:39;;;;;;;1.95;0.52;;;;;;;17.04;50.67;97511.81;10284140;28;20054;-25
2023/09/24 06:09:39;;;;;;;1.60;0.93;;;;;;;17.02;51.55;97532.06;10285835;28;20667;-26
2023/09/24 06:14:40;;;;;;;0.68;0.50;;;;;;;16.95;52.31;97520.09;10279860;28;20369;-26
2023/09/24 06:19:40;;;;;;;1.33;0.67;;;;;;;16.92;51.79;97527.63;10286756;28;20030;-26
2023/09/24 06:24:41;;;;;;;0.95;0.50;;;;;;;16.80;51.68;97513.88;10284430;28;20376;-26
2023/09/24 06:29:41;;;;;;;3.20;0.33;;;;;;;16.79;51.81;97512.19;10290176;28;20412;-26
2023/09/24 06:34:41;;;;;;;1.57;0.40;;;;;;;16.94;52.01;97530.19;10287812;28;20730;-26
2023/09/24 06:39:44;;;;;;;0.87;0.37;;;;;;;16.90;51.94;97531.81;10285165;28;20038;-27
2023/09/24 06:44:45;;;;;;;1.60;0.80;;;;;;;16.92;51.55;97536.91;10285289;28;20022;-27
2023/09/24 06:49:49;;;;;;;1.40;0.40;;;;;;;16.88;50.80;97537.66;10286585;28;20034;-27
2023/09/24 06:54:49;;;;;;;1.48;0.43;;;;;;;17.22;49.71;97527.31;10285832;28;20073;-26
2023/09/24 06:59:50;;;;;;;2.88;0.80;;;;;;;17.62;49.90;97525.53;10287425;28;20034;-27
2023/09/24 07:04:53;;;;;;;7.07;0.90;;;;;;;17.76;50.31;97528.28;10288347;28;20031;-26
2023/09/24 07:09:53;;;;;;;8.23;0.90;;;;;;;17.82;50.14;97530.94;10283847;28;20031;-26
2023/09/24 07:14:53;;;;;;;1.70;0.73;;;;;;;17.97;49.88;97526.06;10289757;28;20042;-26
2023/09/24 07:19:54;;;;;;;1.97;0.70;;;;;;;17.96;49.86;97512.56;10284578;28;20788;-26
2023/09/24 07:24:54;;;;;;;1.73;0.40;;;;;;;18.14;49.80;97529.69;10281034;28;20500;-27
2023/09/24 07:29:55;;;;;;;0.40;0.40;;;;;;;18.21;49.72;97516.28;10288246;28;20369;-26
2023/09/24 07:34:55;;;;;;;0.80;0.40;;;;;;;18.24;49.89;97521.41;10284917;28;20806;-26
2023/09/24 07:39:55;;;;;;;1.60;0.60;;;;;;;18.29;49.72;97517.22;10283103;28;20086;-26
2023/09/24 07:44:56;;;;;;;1.30;0.50;;;;;;;18.29;50.09;97519.75;10290757;28;20105;-26
2023/09/24 07:49:56;;;;;;;1.33;0.60;;;;;;;18.32;50.37;97517.31;10286319;28;20034;-26
2023/09/24 07:55:00;;;;;;;1.20;0.60;;;;;;;18.34;50.16;97523.25;10284098;28;20041;-25
2023/09/24 08:00:01;;;;;;;1.75;0.52;;;;;;;18.41;50.05;97525.88;10284372;28;20034;-26
2023/09/24 08:05:02;;;;;;;1.23;0.47;;;;;;;18.42;49.68;97524.22;10286558;28;20058;-27
2023/09/24 08:10:02;;;;;;;0.70;0.45;;;;;;;18.43;49.87;97520.84;10282144;28;20384;-27
2023/09/24 08:15:04;;;;;;;1.73;0.40;;;;;;;18.44;49.89;97520.00;10284568;28;20035;-26
2023/09/24 08:20:09;;;;;;;0.70;0.40;;;;;;;18.48;49.86;97522.59;10285945;28;20034;-27
2023/09/24 08:25:09;;;;;;;0.75;0.47;;;;;;;18.45;49.94;97511.56;10281305;28;20096;-26
2023/09/24 08:30:10;;;;;;;1.30;0.40;;;;;;;18.50;49.79;97526.00;10281853;28;20356;-27
2023/09/24 08:35:11;;;;;;;1.27;0.43;;;;;;;18.51;49.86;97527.69;10285850;28;20302;-27
2023/09/24 08:40:15;;;;;;;1.33;0.90;;;;;;;18.53;50.03;97520.13;10281351;28;20069;-26
2023/09/24 08:45:20;;;;;;;1.20;0.40;;;;;;;18.53;50.10;97527.72;10285765;28;20027;-26
2023/09/24 08:50:21;;;;;;;1.50;0.60;;;;;;;18.54;49.93;97525.22;10286085;28;20039;-26
2023/09/24 08:55:22;;;;;;;0.80;0.50;;;;;;;18.55;50.14;97524.38;10282708;28;20119;-26
2023/09/24 09:00:22;;;;;;;1.27;0.60;;;;;;;18.56;50.14;97526.09;10280570;28;20046;-27
2023/09/24 09:05:25;;;;;;;0.80;0.55;;;;;;;18.57;50.37;97506.66;10285540;28;20022;-26
2023/09/24 09:10:27;;;;;;;1.00;0.50;;;;;;;18.60;50.30;97514.28;10280201;28;20031;-27
2023/09/24 09:15:27;;;;;;;1.05;0.52;;;;;;;18.59;50.75;97515.13;10281407;28;20494;-26
2023/09/24 09:20:42;;;;;;;1.17;0.73;;;;;;;18.60;50.69;97507.53;10285332;28;20042;-27
2023/09/24 09:25:47;;;;;;;0.85;0.60;;;;;;;18.61;50.43;97505.84;10281567;28;20034;-27
2023/09/24 09:31:02;;;;;;;0.55;0.40;;;;;;;18.63;50.39;97504.19;10283658;28;20023;-26
2023/09/24 09:36:03;;;;;;;1.08;0.50;;;;;;;18.63;50.49;97499.09;10290427;28;20062;-26
2023/09/24 09:41:05;;;;;;;0.63;0.50;;;;;;;18.64;50.36;97500.81;10292243;28;20514;-26
2023/09/24 09:46:07;;;;;;;2.17;0.98;;;;;;;18.65;50.51;97500.84;10288642;28;20023;-26
2023/09/24 09:51:10;;;;;;;1.10;0.60;;;;;;;18.65;50.56;97498.28;10291143;28;20039;-26
2023/09/24 09:56:11;;;;;;;1.23;0.60;;;;;;;18.65;50.69;97497.44;10290839;28;20620;-27
2023/09/24 10:01:12;;;;;;;1.67;0.47;;;;;;;18.67;50.68;97493.25;10288432;28;20038;-27
2023/09/24 10:06:14;;;;;;;0.98;0.60;;;;;;;18.66;50.81;97494.09;10286472;28;20486;-27
2023/09/24 10:11:32;;;;;;;0.75;0.70;;;;;;;18.67;51.06;97493.25;10287316;28;20041;-26
2023/09/24 10:16:35;;;;;;;1.02;0.50;;;;;;;18.68;51.15;97489.88;10290488;28;20082;-26
2023/09/24 10:21:38;;;;;;;2.53;0.70;;;;;;;18.62;51.28;97474.59;10282210;28;20070;-27
2023/09/24 10:27:03;;;;;;;15.63;0.80;;;;;;;18.70;51.39;97478.06;10285895;28;20031;-27
2023/09/24 10:32:08;;;;;;;10.88;0.98;;;;;;;18.67;52.00;97472.97;10287954;28;20039;-27
2023/09/24 10:37:09;;;;;;;2.78;0.90;;;;;;;18.71;52.35;97467.06;10283117;28;20041;-27
2023/09/24 10:42:09;;;;;;;2.08;1.00;;;;;;;18.70;51.74;97462.84;10288194;28;20446;-27
2023/09/24 10:47:30;;;;;;;1.10;0.90;;;;;;;18.68;51.77;97462.81;10287879;28;20035;-27
2023/09/24 10:52:50;;;;;;;2.25;0.63;;;;;;;18.71;51.78;97454.38;10286254;28;20136;-26
2023/09/24 10:57:52;;;;;;;0.93;0.60;;;;;;;18.72;51.57;97456.94;10288067;28;20045;-27
2023/09/24 11:02:57;;;;;;;3.30;0.88;;;;;;;18.71;52.00;97456.91;10288736;28;20158;-26
2023/09/24 11:07:59;;;;;;;2.08;0.77;;;;;;;18.72;52.07;97443.41;10287105;28;20055;-27
2023/09/24 11:13:02;;;;;;;1.73;0.60;;;;;;;18.73;51.96;97442.56;10287877;28;20027;-28
2023/09/24 11:18:03;;;;;;;1.35;0.75;;;;;;;18.68;52.08;97429.00;10288589;28;20465;-26
2023/09/24 11:23:11;;;;;;;1.08;0.75;;;;;;;18.75;52.16;97428.22;10281916;28;20065;-27
2023/09/24 11:28:11;;;;;;;1.85;0.90;;;;;;;18.73;52.15;97432.41;10288532;28;20528;-27
2023/09/24 11:33:22;;;;;;;1.83;0.80;;;;;;;18.74;52.21;97418.94;10286345;28;20038;-27
2023/09/24 11:38:35;;;;;;;0.88;0.60;;;;;;;18.75;52.17;97410.47;10283664;28;20026;-27
2023/09/24 11:43:37;;;;;;;0.90;0.63;;;;;;;18.74;52.28;97416.38;10286306;28;20030;-27
2023/09/24 11:48:37;;;;;;;2.47;0.90;;;;;;;18.76;52.50;97414.72;10285135;28;20035;-27
2023/09/24 11:53:37;;;;;;;3.00;0.83;;;;;;;18.77;52.64;97418.94;10281736;28;20435;-27
2023/09/24 11:58:38;;;;;;;1.90;1.03;;;;;;;18.76;52.46;97413.00;10291960;28;20493;-26
2023/09/24 12:03:39;;;;;;;1.33;0.60;;;;;;;18.77;52.47;97413.88;10287341;28;20231;-27
2023/09/24 12:08:39;;;;;;;2.15;0.75;;;;;;;18.78;52.71;97407.97;10284296;28;20300;-27
2023/09/24 12:13:40;;;;;;;1.13;0.80;;;;;;;18.78;52.57;97400.34;10288735;28;20046;-34
2023/09/24 12:18:40;;;;;;;1.45;0.80;;;;;;;18.78;52.60;97392.75;10283263;28;20093;-27
2023/09/24 12:23:42;;;;;;;2.00;0.60;;;;;;;18.78;52.57;97387.66;10275867;28;20027;-27
2023/09/24 12:28:42;;;;;;;0.73;0.50;;;;;;;18.78;52.10;97385.13;10285953;28;20049;-27
2023/09/24 12:33:43;;;;;;;1.27;0.70;;;;;;;18.80;52.71;97393.59;10283797;28;20393;-26
2023/09/24 12:38:43;;;;;;;1.17;0.40;;;;;;;18.79;52.62;97391.91;10275818;28;20038;-27
2023/09/24 12:43:43;;;;;;;1.23;0.70;;;;;;;18.81;52.68;97375.00;10274334;28;20103;-27
2023/09/24 12:48:44;;;;;;;1.03;0.57;;;;;;;18.82;52.60;97379.25;10281672;28;20509;-26
2023/09/24 12:53:44;;;;;;;2.13;0.63;;;;;;;18.82;52.69;97371.66;10281209;28;20302;-27
2023/09/24 12:58:45;;;;;;;1.02;0.65;;;;;;;18.82;52.85;97361.50;10281738;28;20340;-27
2023/09/24 13:03:45;;;;;;;0.87;0.40;;;;;;;18.82;52.87;97364.03;10283640;28;20053;-26
2023/09/24 13:08:45;;;;;;;1.47;0.60;;;;;;;18.84;52.78;97357.28;10282704;28;20298;-26
2023/09/24 13:13:46;;;;;;;0.87;0.70;;;;;;;18.83;52.88;97353.06;10288369;28;20046;-27
2023/09/24 13:18:46;;;;;;;0.87;0.60;;;;;;;18.82;52.90;97351.34;10286565;28;20042;-27
2023/09/24 13:23:46;;;;;;;0.63;0.40;;;;;;;18.85;52.88;97341.22;10279517;28;20716;-26
2023/09/24 13:28:47;;;;;;;1.03;0.80;;;;;;;18.84;52.76;97342.91;10289802;28;20039;-25
2023/09/24 13:33:47;;;;;;;0.80;0.60;;;;;;;18.84;52.76;97335.28;10287481;28;20435;-26
2023/09/24 13:38:48;;;;;;;1.17;0.60;;;;;;;18.83;52.90;97332.75;10280686;28;20302;-26
2023/09/24 13:43:49;;;;;;;2.22;0.80;;;;;;;18.86;53.01;97327.69;10287468;28;20081;-26
2023/09/24 13:48:50;;;;;;;1.20;0.50;;;;;;;18.83;52.97;97322.59;10287747;28;20401;-27
2023/09/24 13:53:51;;;;;;;1.50;0.60;;;;;;;18.84;53.19;97315.00;10279125;28;20039;-27
2023/09/24 13:58:51;;;;;;;0.90;0.60;;;;;;;18.85;52.90;97310.78;10287403;28;20038;-27
2023/09/24 14:03:52;;;;;;;1.15;0.80;;;;;;;18.82;53.01;97300.63;10285768;28;20558;-27
2023/09/24 14:14:13;;;;;;;0.68;0.40;;;;;;;18.87;52.68;97309.09;10287563;28;20046;-27
2023/09/24 14:19:13;;;;;;;0.85;0.60;;;;;;;18.88;52.85;97305.72;10285457;28;20042;-27
2023/09/24 14:24:13;;;;;;;1.13;0.60;;;;;;;18.87;52.75;97302.34;10279396;28;20596;-27
2023/09/24 14:29:14;;;;;;;1.13;0.60;;;;;;;18.88;52.80;97295.56;10286569;28;20038;-27
2023/09/24 14:34:14;;;;;;;1.23;0.70;;;;;;;18.91;52.67;97298.97;10284617;28;20042;-27
2023/09/24 14:39:14;;;;;;;0.97;0.67;;;;;;;18.94;52.35;97288.88;10278252;28;20042;-26
2023/09/24 14:44:15;;;;;;;1.08;0.60;;;;;;;19.00;52.20;97285.53;10285290;28;20117;-26
2023/09/24 14:49:16;;;;;;;0.85;0.50;;;;;;;19.02;52.02;97289.75;10284350;28;20093;-26
2023/09/24 14:54:16;;;;;;;1.65;0.73;;;;;;;19.02;52.08;97278.75;10283246;28;20031;-26
2023/09/24 14:59:16;;;;;;;1.27;0.77;;;;;;;19.04;51.88;97277.06;10284582;28;20480;-26
2023/09/24 15:04:17;;;;;;;0.73;0.70;;;;;;;19.03;51.94;97285.53;10284505;28;20085;-26
2023/09/24 15:09:17;;;;;;;3.25;0.80;;;;;;;19.04;52.10;97284.69;10276693;28;20043;-27
2023/09/24 15:14:19;;;;;;;1.23;0.53;;;;;;;19.05;52.09;97284.72;10284603;28;20039;-26
2023/09/24 15:19:19;;;;;;;0.95;0.70;;;;;;;19.06;51.99;97285.53;10283292;28;20045;-26
2023/09/24 15:24:19;;;;;;;1.00;0.80;;;;;;;19.03;51.94;97267.78;10285933;28;20053;-26
2023/09/24 15:29:20;;;;;;;1.87;0.73;;;;;;;19.08;51.96;97276.28;10297284;28;20417;-26
2023/09/24 15:34:20;;;;;;;2.30;0.70;;;;;;;19.08;52.05;97284.72;10288081;28;20031;-27
2023/09/24 15:39:20;;;;;;;0.90;0.50;;;;;;;19.09;51.98;97294.03;10281361;28;20042;-27
2023/09/24 15:44:21;;;;;;;1.60;0.57;;;;;;;19.09;51.99;97295.72;10286897;28;20038;-26
2023/09/24 15:49:21;;;;;;;0.87;0.63;;;;;;;19.06;51.78;97283.00;10286735;28;20601;-26
2023/09/24 15:54:22;;;;;;;0.90;0.45;;;;;;;19.10;51.89;97298.25;10283880;28;20404;-26
2023/09/24 15:59:22;;;;;;;0.50;0.40;;;;;;;19.11;51.23;97294.91;10295024;28;20030;-26
2023/09/24 16:04:23;;;;;;;1.03;0.70;;;;;;;19.12;51.89;97290.66;10281665;28;20285;-27
2023/09/24 16:09:23;;;;;;;1.07;0.60;;;;;;;19.13;51.81;97289.81;10277973;28;20290;-27
2023/09/24 16:14:23;;;;;;;0.63;0.47;;;;;;;19.12;51.43;97290.66;10281427;28;20305;-27
2023/09/24 16:19:25;;;;;;;1.40;0.90;;;;;;;19.12;51.61;97300.81;10291454;28;20420;-26
2023/09/24 16:24:26;;;;;;;1.65;0.68;;;;;;;19.11;51.93;97297.44;10284685;28;20497;-27
2023/09/24 16:29:26;;;;;;;2.65;0.57;;;;;;;19.10;51.93;97292.34;10286806;28;20037;-26
2023/09/24 16:34:28;;;;;;;4.47;0.97;;;;;;;19.11;52.08;97305.06;10279871;28;20031;-28
2023/09/24 16:39:28;;;;;;;1.55;0.55;;;;;;;19.11;52.29;97307.59;10285737;28;20298;-27
2023/09/24 16:44:29;;;;;;;1.33;0.57;;;;;;;19.08;52.15;97299.13;10292394;28;20413;-26
2023/09/24 16:49:30;;;;;;;1.25;0.65;;;;;;;19.10;51.99;97298.25;10294100;28;20038;-27
2023/09/24 16:54:31;;;;;;;1.13;0.50;;;;;;;19.10;52.32;97299.97;10291840;28;20039;-26
2023/09/24 16:59:31;;;;;;;5.03;0.70;;;;;;;19.14;52.64;97294.06;10293363;28;20569;-27
2023/09/24 17:04:32;;;;;;;1.15;0.47;;;;;;;19.16;52.57;97300.03;10299664;28;20042;-27
2023/09/24 17:09:32;;;;;;;4.07;0.63;;;;;;;19.18;52.62;97288.19;10286687;28;20039;-27
2023/09/24 17:14:32;;;;;;;5.53;0.80;;;;;;;19.19;52.58;97287.38;10285537;28;20090;-26
2023/09/24 17:19:33;;;;;;;2.03;0.83;;;;;;;19.19;52.66;97287.38;10287750;28;20038;-28
2023/09/24 17:24:33;;;;;;;4.17;0.67;;;;;;;19.19;52.85;97295.81;10286608;28;20097;-27
2023/09/24 17:29:33;;;;;;;1.73;0.60;;;;;;;19.20;52.77;97294.13;10282936;28;20035;-27
2023/09/24 17:34:34;;;;;;;4.40;1.70;;;;;;;19.14;53.04;97287.31;10291663;28;20315;-28
2023/09/24 17:39:34;;;;;;;2.35;0.65;;;;;;;19.14;52.78;97284.78;10291343;28;20039;-27
2023/09/24 17:44:34;;;;;;;1.37;0.50;;;;;;;19.18;52.85;97286.47;10294893;28;20035;-26
2023/09/24 17:49:35;;;;;;;1.50;0.67;;;;;;;19.17;52.67;97284.78;10284892;28;20290;-27
2023/09/24 17:54:35;;;;;;;1.70;0.80;;;;;;;19.14;52.73;97278.81;10293116;28;20317;-27
2023/09/24 17:59:36;;;;;;;1.53;0.50;;;;;;;19.16;52.71;97287.31;10293212;28;20038;-27
2023/09/24 18:04:36;;;;;;;5.72;0.70;;;;;;;19.15;52.85;97285.59;10298167;28;20077;-27
2023/09/24 18:09:36;;;;;;;0.57;0.50;;;;;;;19.13;52.97;97282.22;10282567;28;20073;-27
2023/09/24 18:14:37;;;;;;;0.60;0.40;;;;;;;19.12;52.92;97283.06;10282135;28;20125;-27
2023/09/24 18:19:37;;;;;;;2.40;1.00;;;;;;;19.12;52.84;97288.13;10286188;28;20034;-27
2023/09/24 18:24:39;;;;;;;1.50;0.47;;;;;;;19.09;52.83;97286.41;10283516;28;20033;-26
2023/09/24 18:29:40;;;;;;;2.92;1.15;;;;;;;19.08;52.90;97291.50;10292520;28;20038;-27
2023/09/24 18:34:40;;;;;;;1.03;0.53;;;;;;;19.08;53.07;97283.88;10285443;28;20038;-27
2023/09/24 18:39:41;;;;;;;1.88;0.52;;;;;;;19.07;53.06;97294.84;10281722;28;20286;-27
2023/09/24 18:44:41;;;;;;;1.13;0.40;;;;;;;19.05;53.02;97297.41;10282194;28;20333;-26
2023/09/24 18:49:42;;;;;;;0.80;0.47;;;;;;;19.05;53.02;97296.53;10284937;28;20042;-27
2023/09/24 18:54:42;;;;;;;0.88;0.50;;;;;;;19.05;52.77;97301.63;10288185;28;20066;-27
2023/09/24 18:59:42;;;;;;;1.00;0.63;;;;;;;19.03;53.00;97305.84;10281644;28;20042;-27
2023/09/24 19:04:43;;;;;;;1.47;0.60;;;;;;;19.03;52.87;97303.28;10275011;28;20058;-27
2023/09/24 19:09:45;;;;;;;0.60;0.50;;;;;;;19.02;52.67;97304.13;10278538;28;20334;-27
2023/09/24 19:14:46;;;;;;;1.23;0.70;;;;;;;19.01;52.98;97302.44;10279581;28;20038;-27
2023/09/24 19:19:46;;;;;;;1.10;0.63;;;;;;;19.01;52.98;97307.53;10278164;28;20047;-27
2023/09/24 19:24:51;;;;;;;1.50;1.20;;;;;;;18.98;53.02;97304.94;10281123;28;20030;-26
2023/09/24 19:29:58;;;;;;;1.15;0.93;;;;;;;19.01;52.96;97315.13;10279166;28;20381;-26
2023/09/24 19:34:58;;;;;;;1.20;0.60;;;;;;;18.99;52.98;97304.13;10280177;28;20045;-27
2023/09/24 19:39:59;;;;;;;1.03;0.70;;;;;;;18.98;52.96;97318.50;10277015;28;20049;-27
2023/09/24 19:44:59;;;;;;;1.03;0.57;;;;;;;19.00;52.89;97315.97;10285042;28;20042;-27
2023/09/24 19:50:00;;;;;;;1.58;0.75;;;;;;;18.98;52.89;97312.56;10276617;28;20105;-26
2023/09/24 19:55:00;;;;;;;1.60;0.83;;;;;;;18.98;52.81;97312.56;10283207;28;20438;-27
2023/09/24 20:00:01;;;;;;;1.17;1.07;;;;;;;18.98;52.81;97317.63;10284226;28;20113;-27
2023/09/24 20:05:01;;;;;;;1.05;0.80;;;;;;;18.99;53.05;97304.97;10286936;28;20321;-27
2023/09/24 20:10:03;;;;;;;1.43;0.90;;;;;;;19.00;52.74;97310.91;10287324;28;20109;-26
2023/09/24 20:15:05;;;;;;;1.45;1.00;;;;;;;18.97;52.81;97314.25;10286111;28;20356;-26
2023/09/24 20:20:06;;;;;;;0.98;0.60;;;;;;;18.98;52.92;97322.69;10284332;28;20089;-27
2023/09/24 20:25:13;;;;;;;1.98;0.80;;;;;;;19.00;52.82;97310.91;10282228;28;20031;-26
2023/09/24 20:30:14;;;;;;;1.33;0.82;;;;;;;19.02;52.56;97304.97;10281299;28;20405;-27
2023/09/24 20:35:14;;;;;;;1.17;0.70;;;;;;;19.02;52.57;97306.69;10281298;28;20074;-27
2023/09/24 20:40:15;;;;;;;2.63;0.67;;;;;;;19.02;52.68;97299.06;10281994;28;20445;-27
2023/09/24 20:45:16;;;;;;;0.95;0.75;;;;;;;19.02;52.73;97294.00;10285805;28;20026;-27
2023/09/24 20:50:16;;;;;;;1.17;1.00;;;;;;;19.00;52.98;97300.75;10282005;28;20035;-27
2023/09/24 20:55:17;;;;;;;1.25;0.90;;;;;;;18.99;52.64;97299.88;10283260;28;20034;-26
2023/09/24 21:00:27;;;;;;;1.25;0.63;;;;;;;19.00;52.70;97299.03;10281257;28;20153;-27
2023/09/24 21:05:28;;;;;;;0.70;0.52;;;;;;;18.99;52.79;97304.13;10283646;28;20089;-27
2023/09/24 21:10:28;;;;;;;2.17;0.70;;;;;;;18.99;52.51;97288.91;10280493;28;20069;-26
2023/09/24 21:15:29;;;;;;;0.73;0.68;;;;;;;18.98;52.56;97294.78;10283971;28;20294;-27
2023/09/24 21:20:29;;;;;;;1.27;0.77;;;;;;;18.97;52.57;97295.63;10289698;28;20089;-27
2023/09/24 21:25:30;;;;;;;1.63;0.93;;;;;;;18.98;52.72;97287.19;10286795;28;20058;-27
2023/09/24 21:30:30;;;;;;;1.27;0.63;;;;;;;18.95;52.58;97288.03;10288875;28;20440;-27
2023/09/24 21:35:31;;;;;;;1.70;1.02;;;;;;;18.96;52.89;97282.13;10292151;28;20035;-26
2023/09/24 21:40:31;;;;;;;1.33;0.80;;;;;;;18.96;52.51;97288.84;10287305;28;20041;-26
2023/09/24 21:45:31;;;;;;;1.85;0.80;;;;;;;18.96;52.48;97281.25;10291528;28;20042;-26
2023/09/24 21:50:32;;;;;;;1.77;1.00;;;;;;;18.96;52.51;97281.25;10292700;28;20042;-26
2023/09/24 21:55:32;;;;;;;1.83;0.97;;;;;;;18.90;52.33;97278.66;10289637;28;20030;-27
2023/09/24 22:00:33;;;;;;;1.23;0.83;;;;;;;18.96;52.58;97288.84;10289011;28;20301;-27
2023/09/24 22:05:38;;;;;;;1.63;0.90;;;;;;;18.95;52.42;97289.69;10290766;28;20282;-26
2023/09/24 22:10:39;;;;;;;1.50;0.95;;;;;;;18.94;52.55;97285.47;10294595;28;20038;-27
2023/09/24 22:15:39;;;;;;;1.00;0.80;;;;;;;18.94;52.44;97288.00;10283922;28;20489;-26
2023/09/24 22:20:40;;;;;;;1.23;0.80;;;;;;;18.92;52.65;97287.16;10291110;28;20034;-26
2023/09/24 22:25:41;;;;;;;1.23;0.82;;;;;;;18.94;52.50;97285.47;10285232;28;20673;-27
2023/09/24 22:30:41;;;;;;;1.40;0.85;;;;;;;18.92;52.42;97287.16;10292112;28;20026;-26
2023/09/24 22:35:42;;;;;;;1.23;0.80;;;;;;;18.93;52.51;97278.69;10289836;28;20242;-29
2023/09/24 22:40:42;;;;;;;1.08;0.90;;;;;;;18.93;52.79;97288.84;10284597;28;20424;-27
2023/09/24 22:45:44;;;;;;;1.63;0.80;;;;;;;18.93;52.43;97287.16;10286022;28;20481;-27
2023/09/24 22:50:49;;;;;;;1.23;1.08;;;;;;;18.93;52.52;97286.31;10286151;28;20289;-27
2023/09/24 22:55:50;;;;;;;1.42;0.90;;;;;;;18.93;52.20;97283.78;10289803;28;20402;-27
2023/09/24 23:00:50;;;;;;;1.02;0.80;;;;;;;18.91;52.41;97285.47;10287420;28;20034;-26
2023/09/24 23:05:51;;;;;;;0.73;0.70;;;;;;;18.92;52.34;97287.16;10286811;28;20089;-27
2023/09/24 23:10:51;;;;;;;1.17;0.70;;;;;;;18.92;52.44;97287.16;10284006;28;20142;-27
2023/09/24 23:15:52;;;;;;;1.53;0.80;;;;;;;18.92;52.29;97287.16;10284706;28;20026;-27
2023/09/24 23:20:52;;;;;;;2.27;1.07;;;;;;;18.90;52.09;97278.66;10289286;28;20281;-27
2023/09/24 23:25:53;;;;;;;2.25;0.95;;;;;;;18.92;51.92;97269.41;10283960;28;20278;-26